createdAt,value
2023-07-03T00:03:50.025Z,996.56
2023-07-03T00:09:34.516Z,996.59
2023-07-03T00:15:20.011Z,996.61
2023-07-03T00:21:04.484Z,996.55
2023-07-03T00:26:48.818Z,996.59
2023-07-03T00:32:33.083Z,996.53
2023-07-03T00:38:17.721Z,996.5
2023-07-03T00:44:01.999Z,996.45
2023-07-03T00:49:46.444Z,996.47
2023-07-03T00:55:32.339Z,996.44
2023-07-03T01:01:21.888Z,996.43
2023-07-03T01:07:08.979Z,996.42
2023-07-03T01:12:55.673Z,996.35
2023-07-03T01:18:40.541Z,996.32
2023-07-03T01:24:37.682Z,996.31
2023-07-03T01:30:23.587Z,996.35
2023-07-03T01:36:08.895Z,996.29
2023-07-03T01:41:53.293Z,996.3
2023-07-03T01:47:37.872Z,996.27
2023-07-03T01:53:26.577Z,996.22
2023-07-03T01:59:12.276Z,996.24
2023-07-03T02:05:00.128Z,996.24
2023-07-03T02:10:44.424Z,996.22
2023-07-03T02:16:28.801Z,996.24
2023-07-03T02:22:13.289Z,996.18
2023-07-03T02:27:57.881Z,996.15
2023-07-03T02:33:42.114Z,996.14
2023-07-03T02:39:26.360Z,996.12
2023-07-03T02:45:11.266Z,996.07
2023-07-03T02:50:57.262Z,996.04
2023-07-03T02:56:41.555Z,995.99
2023-07-03T03:02:25.799Z,996.03
2023-07-03T03:08:10.244Z,996
2023-07-03T03:13:54.724Z,996
2023-07-03T03:19:38.901Z,995.99
2023-07-03T03:25:23.410Z,995.95
2023-07-03T03:31:07.729Z,996
2023-07-03T03:36:52.253Z,995.95
2023-07-03T03:42:36.473Z,995.9
2023-07-03T03:48:20.864Z,995.9
2023-07-03T03:54:06.107Z,995.91
2023-07-03T03:59:50.324Z,995.84
2023-07-03T04:05:34.742Z,995.84
2023-07-03T04:11:18.756Z,995.87
2023-07-03T04:17:03.293Z,995.92
2023-07-03T04:22:47.540Z,995.93
2023-07-03T04:28:31.623Z,996.02
2023-07-03T04:34:15.870Z,996.03
2023-07-03T04:40:00.311Z,996.12
2023-07-03T04:45:45.442Z,996.13
2023-07-03T04:51:30.346Z,996.08
2023-07-03T04:57:14.897Z,996.05
2023-07-03T05:02:59.666Z,996.01
2023-07-03T05:08:44.128Z,996.08
2023-07-03T05:14:28.424Z,996.14
2023-07-03T05:20:14.325Z,996.24
2023-07-03T05:25:58.580Z,996.28
2023-07-03T05:31:42.867Z,996.35
2023-07-03T05:37:27.357Z,996.32
2023-07-03T05:43:11.597Z,996.31
2023-07-03T05:48:55.847Z,996.32
2023-07-03T05:54:40.146Z,996.44
2023-07-03T06:00:24.714Z,996.51
2023-07-03T06:06:09.058Z,996.38
2023-07-03T06:11:53.294Z,996.4
2023-07-03T06:17:37.887Z,996.49
2023-07-03T06:23:22.280Z,996.49
2023-07-03T06:29:07.121Z,996.43
2023-07-03T06:34:53.470Z,996.46
2023-07-03T06:40:38.430Z,996.37
2023-07-03T06:46:22.728Z,996.43
2023-07-03T06:52:07.376Z,996.46
2023-07-03T06:57:51.648Z,996.48
2023-07-03T07:03:36.148Z,996.48
2023-07-03T07:09:21.009Z,996.54
2023-07-03T07:15:05.585Z,996.54
2023-07-03T07:20:49.945Z,996.54
2023-07-03T07:26:34.682Z,996.44
2023-07-03T07:32:21.356Z,996.47
2023-07-03T07:38:07.135Z,996.38
2023-07-03T07:43:52.942Z,996.42
2023-07-03T07:49:37.055Z,996.39
2023-07-03T07:55:22.246Z,996.47
2023-07-03T08:01:07.167Z,996.41
2023-07-03T08:06:52.507Z,996.51
2023-07-03T08:12:36.989Z,996.54
2023-07-03T08:18:21.294Z,996.62
2023-07-03T08:24:06.570Z,996.56
2023-07-03T08:29:57.267Z,996.62
2023-07-03T08:41:52.436Z,996.73
2023-07-03T08:47:37.103Z,996.68
2023-07-03T08:53:22.629Z,996.69
2023-07-03T08:59:07.591Z,996.78
2023-07-03T09:04:59.632Z,996.86
2023-07-03T09:10:48.802Z,996.81
2023-07-03T09:16:33.924Z,996.83
2023-07-03T09:22:23.433Z,996.89
2023-07-03T09:28:09.647Z,996.91
2023-07-03T09:33:54.133Z,996.91
2023-07-03T09:39:39.035Z,996.85
2023-07-03T09:45:24.854Z,996.91
2023-07-03T09:51:15.258Z,996.9
2023-07-03T09:56:59.794Z,996.94
2023-07-03T10:08:43.630Z,996.9
2023-07-03T10:14:33.901Z,996.99
2023-07-03T10:20:25.784Z,997.03
2023-07-03T10:26:13.913Z,997.02
2023-07-03T10:32:00.330Z,996.91
2023-07-03T10:37:47.088Z,996.92
2023-07-03T10:43:35.029Z,996.97
2023-07-03T10:49:23.061Z,996.96
2023-07-03T10:55:13.299Z,996.92
2023-07-03T11:01:01.946Z,996.89
2023-07-03T11:06:51.033Z,996.81
2023-07-03T11:12:40.643Z,996.83
2023-07-03T11:24:39.951Z,996.96
2023-07-03T11:30:26.084Z,996.97
2023-07-03T11:36:16.963Z,996.89
2023-07-03T11:48:02.132Z,996.87
2023-07-03T11:53:49.047Z,996.74
2023-07-03T11:59:37.778Z,996.78
2023-07-03T12:05:33.220Z,996.75
2023-07-03T12:11:17.791Z,996.76
2023-07-03T12:17:02.535Z,996.84
2023-07-03T12:22:47.874Z,996.83
2023-07-03T12:28:33.337Z,996.88
2023-07-03T12:34:22.782Z,996.74
2023-07-03T12:40:09.957Z,996.83
2023-07-03T12:45:56.311Z,996.82
2023-07-03T12:51:45.741Z,996.75
2023-07-03T12:57:33.221Z,996.86
2023-07-03T13:03:19.731Z,996.67
2023-07-03T13:09:05.107Z,996.81
2023-07-03T13:14:59.711Z,996.77
2023-07-03T13:20:49.170Z,996.82
2023-07-03T13:26:33.533Z,996.76
2023-07-03T13:32:19.123Z,996.85
2023-07-03T13:38:19.989Z,996.76
2023-07-03T13:44:04.291Z,996.82
2023-07-03T13:49:48.472Z,996.83
2023-07-03T13:55:33.035Z,996.96
2023-07-03T14:01:26.548Z,996.73
2023-07-03T14:07:12.240Z,996.94
2023-07-03T14:12:56.513Z,996.6
2023-07-03T14:18:41.258Z,996.69
2023-07-03T14:24:25.796Z,996.75
2023-07-03T14:30:11.179Z,996.61
2023-07-03T14:35:55.499Z,996.75
2023-07-03T14:41:40.014Z,996.63
2023-07-03T14:47:24.527Z,996.61
2023-07-03T14:53:09.393Z,996.55
2023-07-03T14:58:53.738Z,996.62
2023-07-03T15:04:38.365Z,996.61
2023-07-03T15:10:23.128Z,996.55
2023-07-03T15:16:07.392Z,996.52
2023-07-03T15:21:51.663Z,996.53
2023-07-03T15:27:35.948Z,996.45
2023-07-03T15:33:20.187Z,996.53
2023-07-03T15:39:04.545Z,996.32
2023-07-03T15:44:53.823Z,996.47
2023-07-03T15:50:38.126Z,996.59
2023-07-03T15:56:22.940Z,996.41
2023-07-03T16:02:08.616Z,996.38
2023-07-03T16:07:53.739Z,996.31
2023-07-03T16:13:40.874Z,996.38
2023-07-03T16:19:28.143Z,996.2
2023-07-03T16:25:12.965Z,996.21
2023-07-03T16:31:09.430Z,996.15
2023-07-03T16:36:54.918Z,996.26
2023-07-03T16:42:39.735Z,996.65
2023-07-03T16:48:24.170Z,996.58
2023-07-03T16:54:08.642Z,996.5
2023-07-03T16:59:52.870Z,996.51
2023-07-03T17:05:39.630Z,996.47
2023-07-03T17:11:24.308Z,996.15
2023-07-03T17:17:08.775Z,996.44
2023-07-03T17:22:53.048Z,996.38
2023-07-03T17:28:37.218Z,996.2
2023-07-03T17:34:21.513Z,996.21
2023-07-03T17:40:06.259Z,996.25
2023-07-03T17:45:51.174Z,996.35
2023-07-03T17:51:37.394Z,996.21
2023-07-03T17:57:21.671Z,996.23
2023-07-03T18:03:06.173Z,996.18
2023-07-03T18:08:51.285Z,996.39
2023-07-03T18:14:35.692Z,996.37
2023-07-03T18:20:19.952Z,996.39
2023-07-03T18:26:04.270Z,996.46
2023-07-03T18:31:48.890Z,996.36
2023-07-03T18:37:33.497Z,996.29
2023-07-03T18:43:18.582Z,996.37
2023-07-03T18:49:02.937Z,996.32
2023-07-03T18:54:47.194Z,996.4
2023-07-03T19:00:31.471Z,996.42
2023-07-03T19:06:17.945Z,996.4
2023-07-03T19:12:02.256Z,996.43
2023-07-03T19:17:50.044Z,996.37
2023-07-03T19:23:34.594Z,996.5
2023-07-03T19:29:18.909Z,996.47
2023-07-03T19:35:03.278Z,996.57
2023-07-03T19:40:47.522Z,996.61
2023-07-03T19:46:31.608Z,996.64
2023-07-03T19:52:16.024Z,996.65
2023-07-03T19:58:01.360Z,996.73
2023-07-03T20:03:45.850Z,996.82
2023-07-03T20:09:31.033Z,996.91
2023-07-03T20:15:15.349Z,997.02
2023-07-03T20:20:59.663Z,997.1
2023-07-03T20:26:43.822Z,997.15
2023-07-03T20:32:28.100Z,997.2
2023-07-03T20:38:12.548Z,997.22
2023-07-03T20:43:57.446Z,997.19
2023-07-03T20:49:41.893Z,997.19
2023-07-03T20:55:26.044Z,997.25
2023-07-03T21:01:15.969Z,997.24
2023-07-03T21:07:00.792Z,997.23
2023-07-03T21:12:45.099Z,997.22
2023-07-03T21:18:29.304Z,997.28
2023-07-03T21:24:14.140Z,997.33
2023-07-03T21:29:58.260Z,997.33
2023-07-03T21:35:42.495Z,997.29
2023-07-03T21:41:27.842Z,997.35
2023-07-03T21:47:12.336Z,997.34
2023-07-03T21:52:56.545Z,997.3
2023-07-03T21:58:41.897Z,997.19
2023-07-03T22:04:26.123Z,997.26
2023-07-03T22:10:11.272Z,997.31
2023-07-03T22:15:55.914Z,997.32
2023-07-03T22:21:41.246Z,997.3
2023-07-03T22:27:25.490Z,997.33
2023-07-03T22:33:09.996Z,997.36
2023-07-03T22:38:54.376Z,997.4
2023-07-03T22:44:38.627Z,997.4
2023-07-03T22:50:23.062Z,997.41
2023-07-03T22:56:08.246Z,997.39
2023-07-03T23:01:53.439Z,997.46
2023-07-03T23:07:37.791Z,997.49
2023-07-03T23:13:22.862Z,997.45
2023-07-03T23:19:08.458Z,997.52
2023-07-03T23:24:54.249Z,997.5
2023-07-03T23:30:39.484Z,997.46
2023-07-03T23:36:23.934Z,997.48
2023-07-03T23:42:08.819Z,997.56
2023-07-03T23:47:53.142Z,997.51
2023-07-03T23:53:38.276Z,997.58
2023-07-03T23:59:22.411Z,997.56
